ADDS TAF Board (Experimental) INFO Settings
IDs: Format: Expanded Condensed

KMIA - Miami Intl, FL, US

Issued at 0904 UTC 24 May 2015
Updated at: 1106 UTC 24 May 2015
Time1053Z 24/12Z 24/13Z 24/14Z 24/15Z 24/16Z 24/17Z 24/18Z 24/19Z 24/20Z 24/21Z 24/22Z 24/23Z 25/00Z
Type OBS PRVL PRVL PRVL PRVL PRVL PRVL PRVL PRVL PRVL PRVL PRVL PRVL PRVL
VIS 10 >6 >6 >6 >6 >6 >6 >6 >6 >6 >6 >6 >6 >6
CIG 250 -- -- -- -- -- -- -- -- -- -- -- -- --
Cover BKN FEW SCT SCT SCT SCT SCT SCT SCT SCT SCT SCT SCT SCT
FltCat VFR VFR VFR VFR VFR VFR VFR VFR VFR VFR VFR VFR VFR VFR
WX -- -- -- -- -- -- -- -- -- -- -- -- -- VCSH
WDir 90 90 100 100 100 100 100 100 100 100 100 100 100 100
WSpd 8 8 13 13 13 13 17 17 17 17 17 17 17 15
WGst -- -- 18 18 18 18 27 27 27 27 27 27 27 --
R08/26
XWnd -0 -0 -3 -3 -3 -3 -4 -4 -4 -4 -4 -4 -4 -3
XGst -- -- -4 -4 -4 -4 -6 -6 -6 -6 -6 -6 -6 --
HWnd 8 8 13 13 13 13 17 17 17 17 17 17 17 15
HGst -- -- 18 18 18 18 26 26 26 26 26 26 26 --
R09/27
XWnd -0 -0 -3 -3 -3 -3 -4 -4 -4 -4 -4 -4 -4 -3
XGst -- -- -4 -4 -4 -4 -6 -6 -6 -6 -6 -6 -6 --
HWnd 8 8 13 13 13 13 17 17 17 17 17 17 17 15
HGst -- -- 18 18 18 18 26 26 26 26 26 26 26 --
R12/30
XWnd 4 4 4 4 4 4 6 6 6 6 6 6 6 5
XGst -- -- 6 6 6 6 9 9 9 9 9 9 9 --
HWnd 7 7 12 12 12 12 16 16 16 16 16 16 16 14
HGst -- -- 17 17 17 17 26 26 26 26 26 26 26 --

NOTE: TEMPO conditions in [brackets]. Keep in mind TEMPO conditions might be better (lower impact) than prevailing conditions.

Raw TAF
KMIA 240904Z 2409/2506 09008KT P6SM FEW025
  FM241300 10013G18KT P6SM FEW025 SCT050
  FM241700 10017G27KT P6SM FEW030 SCT050
  FM250000 10015KT P6SM VCSH SCT025 SCT050


Raw METAR
KMIA 241053Z 09008KT 10SM FEW022 BKN250 27/22 A3014 RMK AO2 SLP207 T02670217 $
KMIA 240953Z 09008KT 10SM SCT023 BKN250 27/21 A3013 RMK AO2 SLP204 T02670211 $
KMIA 240853Z 09007KT 10SM FEW026 BKN250 26/19 A3013 RMK AO2 SLP203 T02610194 55004 $

METAR Board
Radar Display
Forecast Discussion

TAF Board Legend

Potential Impact
Threat None Slight Moderate High
Visibility (sm) ≥5.1 5.1>X≥3 3>X≥1 <1
Ceiling (100 ft) ≥30.1 30.1>X≥10 10>X≥5 <5
Wind Speed (kt) <10 10≤X<20 20≤X<30 ≥30
Wind Gust (kt) <15 15≤X<25 25≤X<35 ≥35
Weather No Wx Reported VCTS,-TS,-FZRA,SN TS,FZRA +TS,+FZRA,+SN